createdAt,value
2018-12-30T00:00:01.969Z,5.01
2018-12-30T00:02:33.926Z,4.99
2018-12-30T00:05:05.288Z,4.99
2018-12-30T00:07:36.532Z,5.00
2018-12-30T00:10:12.097Z,5.02
2018-12-30T00:12:44.956Z,5.05
2018-12-30T00:15:15.606Z,5.08
2018-12-30T00:18:01.797Z,5.11
2018-12-30T00:20:34.610Z,5.21
2018-12-30T00:23:14.511Z,5.30
2018-12-30T00:25:50.391Z,5.31
2018-12-30T00:28:23.991Z,5.28
2018-12-30T00:30:57.324Z,5.33
2018-12-30T00:33:27.817Z,5.35
2018-12-30T00:36:00.568Z,5.43
2018-12-30T00:38:33.169Z,5.40
2018-12-30T00:41:05.260Z,5.39
2018-12-30T00:43:35.914Z,5.38
2018-12-30T00:46:08.975Z,5.41
2018-12-30T00:48:39.289Z,5.43
2018-12-30T00:51:16.842Z,5.43
2018-12-30T00:54:01.333Z,5.44
2018-12-30T00:56:51.022Z,5.51
2018-12-30T00:59:42.920Z,5.49
2018-12-30T01:02:14.778Z,5.51
2018-12-30T01:05:04.388Z,5.47
2018-12-30T01:10:30.708Z,5.52
2018-12-30T01:13:20.019Z,5.52
2018-12-30T01:16:09.390Z,5.54
2018-12-30T01:18:39.610Z,5.54
2018-12-30T01:21:13.808Z,5.52
2018-12-30T01:26:27.167Z,5.49
2018-12-30T01:28:57.480Z,5.53
2018-12-30T01:31:48.366Z,5.53
2018-12-30T01:34:37.777Z,5.53
2018-12-30T01:37:26.943Z,5.53
2018-12-30T01:39:58.629Z,5.55
2018-12-30T01:42:28.848Z,5.55
2018-12-30T01:45:19.119Z,5.59
2018-12-30T01:48:01.386Z,5.59
2018-12-30T01:50:21.737Z,5.53
2018-12-30T01:53:11.109Z,5.49
2018-12-30T01:56:00.479Z,5.54
2018-12-30T01:58:30.717Z,5.52
2018-12-30T02:01:01.197Z,5.53
2018-12-30T02:03:52.857Z,5.46
2018-12-30T02:06:42.528Z,5.49
2018-12-30T02:09:15.670Z,5.49
2018-12-30T02:11:48.919Z,5.44
2018-12-30T02:14:38.463Z,5.44
2018-12-30T02:17:12.808Z,5.47
2018-12-30T02:19:43.208Z,5.46
2018-12-30T02:22:13.700Z,5.49
2018-12-30T02:25:03.957Z,5.48
2018-12-30T02:27:48.283Z,5.50
2018-12-30T02:30:20.822Z,5.53
2018-12-30T02:33:10.380Z,5.51
2018-12-30T02:35:40.783Z,5.54
2018-12-30T02:38:11.337Z,5.55
2018-12-30T02:40:42.219Z,5.58
2018-12-30T02:43:32.407Z,5.51
2018-12-30T02:46:06.213Z,5.52
2018-12-30T02:48:38.684Z,5.50
2018-12-30T02:51:29.111Z,5.47
2018-12-30T02:54:42.012Z,5.57
2018-12-30T02:57:33.586Z,5.59
2018-12-30T03:00:22.987Z,5.58
2018-12-30T03:03:13.466Z,5.62
2018-12-30T03:05:46.755Z,5.65
2018-12-30T03:08:36.167Z,5.68
2018-12-30T03:11:06.528Z,5.64
2018-12-30T03:13:56.137Z,5.63
2018-12-30T03:16:47.002Z,5.65
2018-12-30T03:19:37.611Z,5.61
2018-12-30T03:22:26.897Z,5.64
2018-12-30T03:24:57.447Z,5.60
2018-12-30T03:27:39.600Z,5.58
2018-12-30T03:30:10.828Z,5.60
2018-12-30T03:32:41.006Z,5.60
2018-12-30T03:35:30.549Z,5.53
2018-12-30T03:38:19.887Z,5.56
2018-12-30T03:44:03.123Z,5.52
2018-12-30T03:47:11.666Z,5.45
2018-12-30T03:50:01.013Z,5.49
2018-12-30T03:52:54.808Z,5.47
2018-12-30T03:55:26.895Z,5.48
2018-12-30T03:58:16.877Z,5.53
2018-12-30T04:01:07.409Z,5.50
2018-12-30T04:03:58.205Z,5.48
2018-12-30T04:09:44.166Z,5.48
2018-12-30T04:12:38.559Z,5.48
2018-12-30T04:15:09.038Z,5.59
2018-12-30T04:17:40.238Z,5.54
2018-12-30T04:20:10.893Z,5.55
2018-12-30T04:22:41.151Z,5.60
2018-12-30T04:25:30.447Z,5.67
2018-12-30T04:28:01.218Z,5.61
2018-12-30T04:30:32.031Z,5.65
2018-12-30T04:33:24.918Z,5.67
2018-12-30T04:36:17.249Z,5.69
2018-12-30T04:41:48.377Z,5.74
2018-12-30T04:44:37.941Z,5.73
2018-12-30T04:47:08.380Z,5.77
2018-12-30T04:49:57.957Z,5.77
2018-12-30T04:52:47.597Z,5.78
2018-12-30T04:55:18.184Z,5.71
2018-12-30T04:58:07.979Z,5.70
2018-12-30T05:00:41.199Z,5.76
2018-12-30T05:03:30.775Z,5.77
2018-12-30T05:06:20.088Z,5.75
2018-12-30T05:08:50.818Z,5.77
2018-12-30T05:14:38.936Z,5.55
2018-12-30T05:17:09.247Z,5.72
2018-12-30T05:19:42.136Z,5.76
2018-12-30T05:22:12.917Z,5.75
2018-12-30T05:24:43.575Z,5.72
2018-12-30T05:27:14.347Z,5.81
2018-12-30T05:30:05.843Z,5.82
2018-12-30T05:32:56.334Z,5.80
2018-12-30T05:41:44.389Z,5.87
2018-12-30T05:47:30.458Z,5.88
2018-12-30T05:50:00.725Z,5.84
2018-12-30T05:52:50.230Z,5.96
2018-12-30T05:55:20.767Z,5.94
2018-12-30T05:57:51.160Z,5.98
2018-12-30T06:00:41.024Z,6.03
2018-12-30T06:03:30.824Z,5.89
2018-12-30T06:06:23.144Z,5.87
2018-12-30T06:08:55.235Z,5.90
2018-12-30T06:11:26.067Z,5.95
2018-12-30T06:14:15.435Z,5.89
2018-12-30T06:17:06.604Z,5.88
2018-12-30T06:19:42.936Z,5.08
2018-12-30T06:22:33.561Z,5.95
2018-12-30T06:25:23.727Z,5.92
2018-12-30T06:27:58.232Z,5.95
2018-12-30T06:30:32.964Z,5.90
2018-12-30T06:33:06.992Z,5.98
2018-12-30T06:35:39.846Z,5.94
2018-12-30T06:38:16.094Z,6.00
2018-12-30T06:40:48.384Z,5.91
2018-12-30T06:43:21.604Z,5.87
2018-12-30T06:45:52.835Z,5.90
2018-12-30T06:48:24.195Z,5.89
2018-12-30T06:51:16.731Z,5.85
2018-12-30T06:53:48.134Z,5.87
2018-12-30T06:56:58.994Z,5.82
2018-12-30T06:59:49.394Z,5.86
2018-12-30T07:02:20.181Z,5.79
2018-12-30T07:05:10.031Z,5.86
2018-12-30T07:07:41.680Z,5.79
2018-12-30T07:13:27.242Z,5.78
2018-12-30T07:15:58.736Z,5.69
2018-12-30T07:18:48.052Z,5.73
2018-12-30T07:21:39.091Z,5.73
2018-12-30T07:24:29.586Z,5.88
2018-12-30T07:32:35.866Z,5.80
2018-12-30T07:35:19.564Z,5.85
2018-12-30T07:38:01.135Z,5.89
2018-12-30T07:40:41.667Z,5.85
2018-12-30T07:43:12.190Z,5.85
2018-12-30T07:46:02.176Z,5.91
2018-12-30T07:48:32.705Z,5.91
2018-12-30T07:51:03.354Z,5.86
2018-12-30T07:53:53.438Z,5.87
2018-12-30T07:56:23.869Z,5.89
2018-12-30T07:59:13.187Z,5.94
2018-12-30T08:01:44.803Z,5.90
2018-12-30T08:04:16.836Z,6.00
2018-12-30T08:07:09.705Z,5.90
2018-12-30T08:09:59.410Z,6.06
2018-12-30T08:12:29.895Z,6.00
2018-12-30T08:15:01.078Z,6.00
2018-12-30T08:17:51.795Z,6.02
2018-12-30T08:20:44.603Z,6.03
2018-12-30T08:23:34.683Z,5.99
2018-12-30T08:26:23.987Z,6.04
2018-12-30T08:31:30.155Z,6.06
2018-12-30T08:34:12.445Z,6.01
2018-12-30T08:36:54.276Z,6.01
2018-12-30T08:39:34.877Z,6.12
2018-12-30T08:42:26.472Z,6.19
2018-12-30T08:44:56.741Z,6.22
2018-12-30T08:47:47.953Z,6.26
2018-12-30T08:50:19.394Z,6.24
2018-12-30T08:52:50.640Z,6.19
2018-12-30T08:55:42.181Z,6.27
2018-12-30T08:58:32.567Z,6.30
2018-12-30T09:01:28.488Z,6.29
2018-12-30T09:04:15.805Z,6.39
2018-12-30T09:07:06.564Z,6.41
2018-12-30T09:09:37.973Z,6.46
2018-12-30T09:12:09.970Z,6.53
2018-12-30T09:14:59.335Z,6.49
2018-12-30T09:17:30.494Z,6.58
2018-12-30T09:20:01.986Z,6.58
2018-12-30T09:22:33.585Z,6.60
2018-12-30T09:28:02.905Z,6.58
2018-12-30T09:30:34.686Z,6.55
2018-12-30T09:33:27.485Z,6.53
2018-12-30T09:36:10.499Z,6.58
2018-12-30T09:39:00.600Z,6.60
2018-12-30T09:41:34.885Z,6.58
2018-12-30T09:47:19.967Z,6.77
2018-12-30T09:55:28.445Z,7.11
2018-12-30T09:58:01.654Z,7.10
2018-12-30T10:00:54.898Z,7.20
2018-12-30T10:03:46.933Z,7.29
2018-12-30T10:06:19.246Z,7.26
2018-12-30T10:08:50.095Z,7.26
2018-12-30T10:11:42.196Z,7.29
2018-12-30T10:14:40.465Z,7.32
2018-12-30T10:17:33.695Z,6.59
2018-12-30T10:22:58.788Z,7.27
2018-12-30T10:25:27.124Z,7.33
2018-12-30T10:28:11.268Z,7.38
2018-12-30T10:30:34.497Z,7.33
2018-12-30T10:33:05.181Z,7.09
2018-12-30T10:35:37.703Z,7.06
2018-12-30T10:41:09.340Z,7.24
2018-12-30T10:43:42.705Z,7.07
2018-12-30T10:46:13.084Z,7.06
2018-12-30T10:49:03.154Z,7.03
2018-12-30T10:51:36.311Z,7.12
2018-12-30T10:54:06.767Z,7.14
2018-12-30T10:56:37.582Z,7.11
2018-12-30T10:59:30.544Z,7.17
2018-12-30T11:02:02.663Z,7.17
2018-12-30T11:04:52.618Z,7.23
2018-12-30T11:07:42.573Z,6.99
2018-12-30T11:10:19.762Z,7.06
2018-12-30T11:12:52.005Z,7.03
2018-12-30T11:15:32.773Z,7.02
2018-12-30T11:18:06.475Z,7.05
2018-12-30T11:20:39.731Z,6.97
2018-12-30T11:23:10.291Z,7.00
2018-12-30T11:25:40.844Z,6.99
2018-12-30T11:28:11.299Z,6.95
2018-12-30T11:30:44.753Z,7.00
2018-12-30T11:33:15.791Z,7.03
2018-12-30T11:35:47.044Z,6.94
2018-12-30T11:38:17.402Z,6.93
2018-12-30T11:40:48.967Z,7.03
2018-12-30T11:43:38.712Z,6.97
2018-12-30T11:46:09.106Z,6.02
2018-12-30T11:48:40.111Z,6.96
2018-12-30T11:51:10.440Z,6.97
2018-12-30T11:57:22.671Z,6.90
2018-12-30T12:00:16.266Z,6.89
2018-12-30T12:02:47.540Z,6.93
2018-12-30T12:05:37.333Z,6.92
2018-12-30T12:08:30.693Z,6.95
2018-12-30T12:11:03.706Z,6.97
2018-12-30T12:13:35.338Z,6.86
2018-12-30T12:16:09.437Z,6.79
2018-12-30T12:21:18.601Z,6.79
2018-12-30T12:23:50.797Z,6.85
2018-12-30T12:26:41.187Z,6.88
2018-12-30T12:32:53.887Z,6.85
2018-12-30T12:35:31.377Z,6.82
2018-12-30T12:38:16.152Z,6.78
2018-12-30T12:43:43.632Z,6.79
2018-12-30T12:46:35.101Z,6.80
2018-12-30T12:52:00.003Z,6.82
2018-12-30T12:54:32.286Z,6.85
2018-12-30T12:59:41.700Z,6.87
2018-12-30T13:02:13.220Z,6.92
2018-12-30T13:04:49.380Z,6.83
2018-12-30T13:07:21.098Z,6.80
2018-12-30T13:09:51.732Z,6.72
2018-12-30T13:12:24.309Z,6.74
2018-12-30T13:14:54.617Z,6.71
2018-12-30T13:18:05.639Z,6.74
2018-12-30T13:20:36.603Z,6.28
2018-12-30T13:23:31.108Z,6.68
2018-12-30T13:29:36.612Z,6.69
2018-12-30T13:35:43.283Z,6.56
2018-12-30T13:38:10.970Z,6.51
2018-12-30T13:40:44.329Z,6.52
2018-12-30T13:43:16.720Z,6.52
2018-12-30T13:45:47.736Z,6.66
2018-12-30T13:48:37.275Z,6.66
2018-12-30T13:51:11.434Z,6.58
2018-12-30T13:53:41.911Z,6.62
2018-12-30T13:56:18.433Z,6.52
2018-12-30T13:59:08.651Z,6.48
2018-12-30T14:01:39.324Z,6.56
2018-12-30T14:04:29.266Z,6.52
2018-12-30T14:07:20.726Z,6.54
2018-12-30T14:10:10.658Z,6.58
2018-12-30T14:15:57.229Z,6.55
2018-12-30T14:18:48.910Z,6.60
2018-12-30T14:21:23.446Z,6.54
2018-12-30T14:23:54.109Z,6.56
2018-12-30T14:26:45.782Z,6.47
2018-12-30T14:29:36.596Z,6.42
2018-12-30T14:32:13.370Z,6.48
2018-12-30T14:34:43.780Z,6.35
2018-12-30T14:37:16.621Z,6.41
2018-12-30T14:39:47.865Z,6.42
2018-12-30T14:42:22.663Z,6.39
2018-12-30T14:44:54.898Z,6.30
2018-12-30T14:47:25.595Z,6.37
2018-12-30T14:50:15.885Z,6.32
2018-12-30T14:53:06.555Z,6.32
2018-12-30T14:58:17.420Z,6.32
2018-12-30T15:00:51.152Z,6.37
2018-12-30T15:06:12.912Z,6.22
2018-12-30T15:08:44.719Z,6.13
2018-12-30T15:11:36.852Z,6.04
2018-12-30T15:14:08.890Z,6.11
2018-12-30T15:16:59.669Z,5.96
2018-12-30T15:22:44.134Z,5.95
2018-12-30T15:25:15.610Z,5.90
2018-12-30T15:31:00.642Z,5.87
2018-12-30T15:33:34.039Z,5.85
2018-12-30T15:36:04.985Z,5.83
2018-12-30T15:38:36.511Z,5.88
2018-12-30T15:41:08.163Z,5.76
2018-12-30T15:43:39.127Z,5.80
2018-12-30T15:46:10.467Z,5.81
2018-12-30T15:48:41.314Z,5.76
2018-12-30T15:51:12.415Z,5.83
2018-12-30T15:53:45.349Z,5.73
2018-12-30T15:56:19.008Z,5.76
2018-12-30T15:58:49.900Z,5.64
2018-12-30T16:01:39.824Z,5.59
2018-12-30T16:04:11.047Z,5.62
2018-12-30T16:06:42.930Z,5.57
2018-12-30T16:09:14.321Z,5.57
2018-12-30T16:14:58.428Z,5.66
2018-12-30T16:17:33.628Z,5.76
2018-12-30T16:20:06.965Z,5.67
2018-12-30T16:22:37.735Z,5.59
2018-12-30T16:25:27.645Z,5.62
2018-12-30T16:27:59.986Z,5.58
2018-12-30T16:30:50.616Z,5.64
2018-12-30T16:33:42.981Z,5.77
2018-12-30T16:36:13.388Z,5.63
2018-12-30T16:38:46.010Z,5.59
2018-12-30T16:41:16.895Z,5.71
2018-12-30T16:44:06.569Z,5.62
2018-12-30T16:46:48.603Z,5.25
2018-12-30T16:49:30.529Z,5.64
2018-12-30T16:52:01.480Z,5.54
2018-12-30T16:54:51.196Z,5.51
2018-12-30T16:57:21.643Z,5.64
2018-12-30T16:59:52.466Z,5.60
2018-12-30T17:02:44.101Z,5.52
2018-12-30T17:11:33.365Z,5.53
2018-12-30T17:14:04.046Z,5.48
2018-12-30T17:16:53.675Z,5.46
2018-12-30T17:19:24.266Z,5.43
2018-12-30T17:22:14.257Z,5.43
2018-12-30T17:24:47.289Z,5.39
2018-12-30T17:27:37.307Z,5.37
2018-12-30T17:30:09.585Z,5.42
2018-12-30T17:32:59.373Z,5.40
2018-12-30T17:35:48.960Z,5.32
2018-12-30T17:39:00.677Z,5.40
2018-12-30T17:41:34.117Z,5.37
2018-12-30T17:47:11.455Z,5.41
2018-12-30T17:49:53.481Z,5.28
2018-12-30T17:52:34.680Z,5.19
2018-12-30T17:58:00.336Z,5.35
2018-12-30T18:00:30.904Z,5.23
2018-12-30T18:03:20.618Z,5.13
2018-12-30T18:06:10.704Z,5.11
2018-12-30T18:08:43.613Z,5.15
2018-12-30T18:11:15.288Z,5.20
2018-12-30T18:14:04.604Z,5.26
2018-12-30T18:16:53.945Z,5.20
2018-12-30T18:19:26.500Z,5.24
2018-12-30T18:21:56.779Z,5.09
2018-12-30T18:24:28.393Z,5.14
2018-12-30T18:27:17.936Z,5.20
2018-12-30T18:35:47.415Z,5.23
2018-12-30T18:38:36.757Z,5.18
2018-12-30T18:41:26.436Z,5.19
2018-12-30T18:44:16.927Z,5.20
2018-12-30T18:49:27.328Z,5.26
2018-12-30T18:52:17.023Z,5.32
2018-12-30T18:55:08.035Z,5.31
2018-12-30T19:00:34.957Z,5.28
2018-12-30T19:03:28.657Z,5.31
2018-12-30T19:05:59.837Z,5.26
2018-12-30T19:08:31.558Z,5.27
2018-12-30T19:11:02.748Z,5.36
2018-12-30T19:13:34.377Z,5.38
2018-12-30T19:16:24.568Z,5.38
2018-12-30T19:18:54.866Z,5.40
2018-12-30T19:21:26.736Z,5.41
2018-12-30T19:23:58.021Z,5.38
2018-12-30T19:26:28.333Z,5.28
2018-12-30T19:29:17.780Z,5.26
2018-12-30T19:32:07.577Z,5.30
2018-12-30T19:34:38.203Z,5.34
2018-12-30T19:37:09.304Z,5.20
2018-12-30T19:39:39.767Z,5.17
2018-12-30T19:42:12.515Z,5.11
2018-12-30T19:44:42.843Z,5.09
2018-12-30T19:47:13.981Z,5.16
2018-12-30T19:49:45.153Z,5.06
2018-12-30T19:52:35.135Z,5.06
2018-12-30T19:55:06.456Z,4.23
2018-12-30T19:57:37.004Z,5.03
2018-12-30T20:00:27.227Z,5.04
2018-12-30T20:02:57.813Z,5.04
2018-12-30T20:05:28.315Z,4.98
2018-12-30T20:10:35.650Z,5.01
2018-12-30T20:13:09.196Z,5.02
2018-12-30T20:15:39.667Z,5.08
2018-12-30T20:18:10.828Z,5.09
2018-12-30T20:20:41.403Z,5.01
2018-12-30T20:23:13.452Z,4.96
2018-12-30T20:26:03.510Z,4.95
2018-12-30T20:28:53.004Z,4.91
2018-12-30T20:34:19.166Z,4.85
2018-12-30T20:39:48.720Z,4.97
2018-12-30T20:42:38.924Z,4.83
2018-12-30T20:45:29.611Z,4.80
2018-12-30T20:48:00.742Z,4.82
2018-12-30T20:50:31.826Z,4.73
2018-12-30T20:53:21.203Z,4.72
2018-12-30T20:55:51.533Z,4.66
2018-12-30T20:58:40.891Z,4.64
2018-12-30T21:01:12.371Z,4.60
2018-12-30T21:04:02.139Z,4.55
2018-12-30T21:09:30.220Z,4.51
2018-12-30T21:12:02.133Z,4.44
2018-12-30T21:14:32.516Z,4.40
2018-12-30T21:17:23.338Z,4.37
2018-12-30T21:23:02.962Z,4.30
2018-12-30T21:26:12.210Z,4.42
2018-12-30T21:28:45.375Z,4.39
2018-12-30T21:31:17.348Z,4.40
2018-12-30T21:33:47.791Z,4.39
2018-12-30T21:36:18.132Z,4.35
2018-12-30T21:38:48.491Z,4.31
2018-12-30T21:44:22.661Z,4.36
2018-12-30T21:47:12.785Z,4.30
2018-12-30T21:49:43.335Z,4.31
2018-12-30T21:52:26.297Z,4.23
2018-12-30T21:55:09.266Z,4.33
2018-12-30T22:01:17.926Z,4.30
2018-12-30T22:04:08.785Z,4.24
2018-12-30T22:06:59.591Z,4.26
2018-12-30T22:09:52.183Z,4.20
2018-12-30T22:12:29.314Z,4.26
2018-12-30T22:14:59.775Z,4.20
2018-12-30T22:17:49.632Z,4.25
2018-12-30T22:20:29.502Z,3.27
2018-12-30T22:23:02.894Z,4.24
2018-12-30T22:25:34.829Z,4.23
2018-12-30T22:31:20.784Z,4.28
2018-12-30T22:34:12.161Z,4.29
2018-12-30T22:36:42.797Z,4.25
2018-12-30T22:39:13.324Z,4.32
2018-12-30T22:42:03.436Z,4.35
2018-12-30T22:44:34.893Z,4.30
2018-12-30T22:47:05.595Z,4.26
2018-12-30T22:49:36.185Z,4.29
2018-12-30T22:52:06.793Z,4.26
2018-12-30T22:54:37.418Z,4.29
2018-12-30T22:57:27.820Z,4.31
2018-12-30T22:59:58.732Z,3.44
2018-12-30T23:02:48.854Z,4.39
2018-12-30T23:05:20.254Z,4.38
2018-12-30T23:07:50.829Z,4.46
2018-12-30T23:13:35.307Z,4.25
2018-12-30T23:16:25.060Z,4.47
2018-12-30T23:18:55.878Z,4.54
2018-12-30T23:21:45.644Z,4.48
2018-12-30T23:24:35.182Z,4.52
2018-12-30T23:27:26.190Z,4.46
2018-12-30T23:29:59.432Z,4.52
2018-12-30T23:32:49.451Z,4.49
2018-12-30T23:35:20.113Z,4.62
2018-12-30T23:43:49.387Z,4.64
2018-12-30T23:46:39.178Z,4.50
2018-12-30T23:49:29.858Z,4.48
2018-12-30T23:52:00.441Z,4.45
2018-12-30T23:54:31.261Z,4.41
2018-12-30T23:57:02.131Z,4.38
